world map with PAN marked

PAN - Airport

This information may not be accurate or current and is not valid for navigation or flight planning. No warranty of fitness for any purpose is made or implied.

flag of Thailand

Donate via PayPal

Additional information is available on the NEW Great Circle Mapper

Location
City:  Pattani, Thailand
ICAO / IATA:VTSK / PAN

Details
Type:Airport (Aerodrome, Airfield)
Latitude:6°47'08"N (6.785458)
Longitude:101°09'13"E (101.153569)
Datum:WGS 1984
Elevation:8 ft (2 m)
Runways:1
Longest:4593 × 131 ft (1400 × 40 m)

Time
Timezone:UTC+7
Local Time:

Weather
METAR:VTSK  (expired)
TAF:VTSK  241700Z 2418/2518 00000KT 7000 FEW020 SCT300 BECMG 2501/2503 08008KT 9999 SCT020 TEMPO 2507/2512 VRB15KT 4000 TSRA FEW016CB BKN020 BECMG 2513/2515 00000KT 9000 FEW020 SCT300

Related Locations
Nearby:
Farthest:SPCT: 12437 mi / 20015 km
Chota, PE

Find:

   beyond  
but within

Other Information
Maps:
Links:
Sources:

  


 


Great Circle Mapper   Great Circle Mapper
Great Circle Mapper FAQ   Great Circle Mapper FAQ
  Karl's Home Page
KLSē   KLSē Home
   GC on Facebook
Airlines of the World   Airlines of the World
Donate via PayPal


Copyright © 2004-2013, Karl L. Swartz. All rights reserved.
All trademarks mentioned herein belong to their respective owners.

Please see credits for attribution and copyright information.

Karl Swartz <karl@kls2.com>
  Powered by FreeBSD
Valid HTML 4.01!
Labeled with ICRA
hCard Microformat
Geo Microformat